Time;durP1;ratioP1;P1;durP2;ratioP2;P2;SDS_P1;SDS_P2;PMS_P1;PMS_P2;Temp;Humidity;BMP_temperature;BMP_pressure;BME280_temperature;BME280_humidity;BME280_pressure;Samples;Min_cycle;Max_cycle;Signal;HPM_P1;HPM_P2
2022/04/01 00:00:43;;;;;;;462.10;58.53;;;;;;;3.10;100.00;93626.97;6102379;23;20155;-79
2022/04/01 00:03:09;;;;;;;227.40;47.17;;;;;;;3.18;100.00;93618.50;6101599;23;20165;-80
2022/04/01 00:05:35;;;;;;;145.77;46.23;;;;;;;3.20;100.00;93625.09;6078376;23;20223;-80
2022/04/01 00:08:01;;;;;;;141.53;42.30;;;;;;;3.12;100.00;93620.72;6101733;23;20239;-80
2022/04/01 00:10:27;;;;;;;101.43;42.67;;;;;;;3.10;100.00;93616.69;6102073;23;20152;-81
2022/04/01 00:12:53;;;;;;;76.27;41.37;;;;;;;3.13;100.00;93613.81;6102284;23;20673;-80
2022/04/01 00:15:18;;;;;;;90.60;41.00;;;;;;;3.18;100.00;93621.06;6102330;23;20172;-80
2022/04/01 00:17:44;;;;;;;290.97;49.20;;;;;;;3.08;100.00;93629.66;6078154;23;20234;-81
2022/04/01 00:20:11;;;;;;;378.17;53.00;;;;;;;3.11;100.00;93620.88;6102510;23;20633;-80
2022/04/01 00:22:37;;;;;;;401.70;53.37;;;;;;;3.16;100.00;93620.41;6075621;23;20163;-80
2022/04/01 00:25:02;;;;;;;464.23;56.40;;;;;;;3.08;100.00;93619.38;6078287;23;20184;-80
2022/04/01 00:27:28;;;;;;;180.27;42.87;;;;;;;3.13;100.00;93619.75;6102004;23;20607;-81
2022/04/01 00:29:53;;;;;;;57.67;34.07;;;;;;;2.91;100.00;93622.78;6101497;23;20194;-81
2022/04/01 00:32:19;;;;;;;57.13;33.60;;;;;;;2.90;100.00;93626.31;6076972;23;20218;-81
2022/04/01 00:34:45;;;;;;;55.43;33.33;;;;;;;3.02;100.00;93622.56;6101716;23;20484;-80
2022/04/01 00:37:11;;;;;;;96.80;35.30;;;;;;;2.95;100.00;93625.88;6078036;23;20262;-80
2022/04/01 00:39:36;;;;;;;80.07;34.30;;;;;;;3.00;100.00;93619.31;6078357;23;20537;-81
2022/04/01 00:42:03;;;;;;;224.23;39.43;;;;;;;2.96;100.00;93620.59;6101433;23;20156;-80
2022/04/01 00:44:31;;;;;;;57.77;32.50;;;;;;;2.96;100.00;93622.34;6077897;23;20160;-80
2022/04/01 00:47:00;;;;;;;58.87;31.57;;;;;;;2.96;100.00;93620.59;6077978;23;20173;-79
2022/04/01 00:49:29;;;;;;;47.30;29.80;;;;;;;2.90;100.00;93621.19;6101661;23;20479;-80
2022/04/01 00:51:58;;;;;;;49.90;28.97;;;;;;;2.93;100.00;93620.91;6102416;23;20160;-79
2022/04/01 00:54:24;;;;;;;49.90;29.73;;;;;;;2.96;100.00;93615.47;6078125;23;20168;-81
2022/04/01 00:56:49;;;;;;;47.83;28.47;;;;;;;2.79;100.00;93618.84;6101905;23;20176;-81
2022/04/01 00:59:15;;;;;;;45.93;28.30;;;;;;;2.61;100.00;93620.59;6077819;23;20488;-78
2022/04/01 01:01:43;;;;;;;46.47;28.83;;;;;;;2.62;100.00;93620.47;6101112;23;20152;-80
2022/04/01 01:04:10;;;;;;;49.23;27.73;;;;;;;2.70;100.00;93622.28;6103277;23;20254;-80
2022/04/01 01:06:45;;;;;;;49.73;28.70;;;;;;;2.63;100.00;93616.94;6078288;23;20176;-81
2022/04/01 01:09:11;;;;;;;46.77;27.33;;;;;;;2.72;100.00;93617.81;6101847;23;20598;-81
2022/04/01 01:11:37;;;;;;;50.37;29.47;;;;;;;2.70;100.00;93622.28;6125625;23;20159;-81
2022/04/01 01:14:04;;;;;;;42.67;25.33;;;;;;;2.67;100.00;93625.16;6102537;23;20456;-79
2022/04/01 01:16:31;;;;;;;47.27;27.43;;;;;;;2.68;100.00;93619.88;6101905;23;20266;-80
2022/04/01 01:19:24;;;;;;;65.90;29.03;;;;;;;2.68;100.00;93621.66;6077816;23;20215;-80
2022/04/01 01:21:52;;;;;;;47.70;28.77;;;;;;;2.61;100.00;93623.19;6125608;23;20163;-80
2022/04/01 01:24:32;;;;;;;71.97;31.47;;;;;;;2.73;100.00;93616.88;6101758;23;20259;-78
2022/04/01 01:26:59;;;;;;;105.13;31.10;;;;;;;2.74;100.00;93616.75;6078153;23;20267;-80
2022/04/01 01:29:26;;;;;;;200.17;35.53;;;;;;;2.75;100.00;93614.97;6101696;23;20174;-80
2022/04/01 01:31:54;;;;;;;124.20;34.47;;;;;;;2.69;100.00;93616.38;6077076;23;20167;-80
2022/04/01 01:34:20;;;;;;;266.70;37.87;;;;;;;2.70;100.00;93610.28;6077909;23;20160;-80
2022/04/01 01:36:45;;;;;;;174.43;36.20;;;;;;;2.76;100.00;93599.44;6101856;23;20479;-80
2022/04/01 01:39:10;;;;;;;629.63;56.77;;;;;;;2.69;100.00;93616.38;6077813;23;20242;-80
2022/04/01 01:41:36;;;;;;;402.13;44.17;;;;;;;2.68;100.00;93608.84;6101485;23;20152;-80
2022/04/01 01:44:01;;;;;;;312.73;36.97;;;;;;;2.70;100.00;93612.03;6103354;23;20637;-80
2022/04/01 01:46:26;;;;;;;140.33;32.90;;;;;;;2.77;100.00;93613.06;6103886;23;20180;-79
2022/04/01 01:48:52;;;;;;;633.67;56.13;;;;;;;2.68;100.00;93612.19;6079477;23;20152;-80
2022/04/01 01:56:45;;;;;;;720.30;61.03;;;;;;;2.46;100.00;93610.84;6129481;23;20245;-80
2022/04/01 01:59:11;;;;;;;768.13;67.47;;;;;;;2.46;100.00;93610.84;6079491;23;20159;-80
2022/04/01 02:01:41;;;;;;;498.30;49.00;;;;;;;2.51;100.00;93598.44;6102953;23;20613;-80
2022/04/01 02:04:06;;;;;;;834.30;66.47;;;;;;;2.37;100.00;93616.06;6079399;23;20215;-79
2022/04/01 02:06:32;;;;;;;914.03;71.03;;;;;;;2.41;100.00;93612.25;6079815;23;20575;-80
2022/04/01 02:08:58;;;;;;;843.77;70.03;;;;;;;2.42;100.00;93612.13;6104382;23;20210;-79
2022/04/01 02:11:23;;;;;;;485.20;46.93;;;;;;;2.44;100.00;93610.22;6078447;23;20167;-80
2022/04/01 02:13:50;;;;;;;775.50;61.43;;;;;;;2.40;100.00;93608.91;6078831;23;20167;-80
2022/04/01 02:16:16;;;;;;;459.60;46.17;;;;;;;2.35;100.00;93608.53;6079658;23;20180;-80
2022/04/01 02:18:41;;;;;;;851.43;69.90;;;;;;;2.41;100.00;93607.94;6103859;23;20171;-79
2022/04/01 02:21:15;;;;;;;757.23;65.43;;;;;;;2.25;100.00;93608.59;6078412;23;20164;-80
2022/04/01 02:23:41;;;;;;;415.30;48.10;;;;;;;2.38;100.00;93605.66;6080562;23;20164;-79
2022/04/01 02:26:07;;;;;;;426.53;46.23;;;;;;;2.36;100.00;93610.13;6078603;23;20504;-78
2022/04/01 02:28:37;;;;;;;108.27;32.80;;;;;;;2.47;100.00;93609.94;6077692;23;20160;-79
2022/04/01 02:31:04;;;;;;;753.47;62.57;;;;;;;2.36;100.00;93604.19;6082052;23;20176;-78
2022/04/01 02:33:30;;;;;;;588.13;53.97;;;;;;;2.24;100.00;93606.16;6106796;23;20152;-81
2022/04/01 02:35:57;;;;;;;810.87;66.63;;;;;;;2.07;100.00;93612.06;6083434;23;20203;-80
2022/04/01 02:38:26;;;;;;;625.20;52.23;;;;;;;2.17;100.00;93602.56;6081606;23;20184;-81
2022/04/01 02:40:58;;;;;;;444.80;49.63;;;;;;;2.18;100.00;93604.19;6103360;23;20148;-81
2022/04/01 02:43:25;;;;;;;361.17;42.97;;;;;;;2.23;100.00;93609.69;6078531;23;20156;-81
2022/04/01 02:45:50;;;;;;;387.63;44.37;;;;;;;2.27;100.00;93608.44;6102858;23;20168;-81
2022/04/01 02:48:17;;;;;;;499.43;48.37;;;;;;;2.27;100.00;93609.25;6102915;23;20478;-81
2022/04/01 02:50:43;;;;;;;683.70;69.50;;;;;;;2.19;100.00;93608.34;6078549;23;20160;-81
2022/04/01 02:53:09;;;;;;;580.93;56.80;;;;;;;2.23;100.00;93604.56;6078056;23;20164;-81
2022/04/01 02:55:34;;;;;;;1008.93;86.63;;;;;;;2.00;100.00;93601.59;6079050;23;20175;-81
2022/04/01 02:57:59;;;;;;;401.40;44.87;;;;;;;2.19;100.00;93604.03;6078380;23;20180;-79
2022/04/01 03:00:26;;;;;;;298.13;43.07;;;;;;;2.25;100.00;93608.59;6102739;23;20206;-80
2022/04/01 03:02:51;;;;;;;131.73;38.00;;;;;;;2.28;100.00;93602.34;6077798;23;20303;-81
2022/04/01 03:05:19;;;;;;;116.60;35.30;;;;;;;2.09;100.00;93603.28;6078178;23;20180;-80
2022/04/01 03:07:45;;;;;;;74.60;33.50;;;;;;;2.10;100.00;93598.97;6102911;23;20156;-79
2022/04/01 03:10:11;;;;;;;104.50;34.30;;;;;;;2.11;100.00;93600.59;6078461;23;20167;-79
2022/04/01 03:12:36;;;;;;;158.80;37.33;;;;;;;2.08;100.00;93604.25;6101869;23;20152;-79
2022/04/01 03:15:02;;;;;;;149.50;35.10;;;;;;;2.15;100.00;93602.72;6102282;23;20200;-80
2022/04/01 03:17:28;;;;;;;129.23;34.67;;;;;;;2.17;100.00;93613.63;6078508;23;20372;-80
2022/04/01 03:19:53;;;;;;;178.40;36.87;;;;;;;2.18;100.00;93611.88;6078324;23;20159;-81
2022/04/01 03:22:20;;;;;;;200.57;35.73;;;;;;;2.10;100.00;93614.34;6077423;23;20234;-80
2022/04/01 03:24:46;;;;;;;140.00;32.90;;;;;;;2.15;100.00;93612.16;6078416;23;20174;-82
2022/04/01 03:27:12;;;;;;;263.23;38.77;;;;;;;2.11;100.00;93613.38;6079394;23;20152;-80
2022/04/01 03:29:37;;;;;;;268.97;37.87;;;;;;;2.17;100.00;93617.94;6102385;23;20175;-81
2022/04/01 03:32:03;;;;;;;361.73;43.43;;;;;;;2.16;100.00;93611.22;6101177;23;20669;-80
2022/04/01 03:34:28;;;;;;;431.47;47.13;;;;;;;2.07;100.00;93609.50;6102860;23;20168;-80
2022/04/01 03:36:54;;;;;;;589.03;53.97;;;;;;;1.99;100.00;93612.78;6102573;23;20245;-80
2022/04/01 03:39:21;;;;;;;285.00;42.27;;;;;;;2.11;100.00;93611.63;6079087;23;20513;-78
2022/04/01 03:41:48;;;;;;;596.37;55.73;;;;;;;2.18;100.00;93614.44;6079283;23;20170;-79
2022/04/01 03:44:13;;;;;;;460.50;44.77;;;;;;;2.07;100.00;93614.63;6080137;23;20183;-80
2022/04/01 03:46:47;;;;;;;656.90;58.00;;;;;;;2.04;100.00;93620.84;6105662;23;20244;-80
2022/04/01 03:49:17;;;;;;;515.17;48.60;;;;;;;2.02;100.00;93620.16;6103651;23;20448;-80
2022/04/01 03:51:44;;;;;;;194.00;32.63;;;;;;;2.07;100.00;93623.13;6102725;23;20178;-79
2022/04/01 03:54:11;;;;;;;477.33;48.10;;;;;;;1.96;100.00;93624.13;6080319;23;20586;-79
2022/04/01 03:56:37;;;;;;;293.23;39.07;;;;;;;1.95;100.00;93629.38;6098753;23;20215;-79
2022/04/01 03:59:07;;;;;;;152.57;32.47;;;;;;;2.06;100.00;93623.25;6099913;23;20460;-79
2022/04/01 04:01:37;;;;;;;312.83;40.30;;;;;;;2.10;100.00;93624.56;6100128;23;20160;-79
2022/04/01 04:04:03;;;;;;;276.80;40.47;;;;;;;2.07;100.00;93628.25;6079364;23;20163;-80
2022/04/01 04:06:28;;;;;;;345.57;43.47;;;;;;;1.98;100.00;93629.91;6080167;23;20180;-81
2022/04/01 04:08:57;;;;;;;378.53;42.30;;;;;;;2.02;100.00;93621.91;6102120;23;20156;-80
2022/04/01 04:11:28;;;;;;;646.57;61.40;;;;;;;1.97;100.00;93641.09;6102599;23;20525;-80
2022/04/01 04:13:55;;;;;;;699.60;60.53;;;;;;;1.97;100.00;93635.97;6103083;23;20214;-79
2022/04/01 04:16:31;;;;;;;566.53;52.37;;;;;;;1.94;100.00;93636.25;6079503;23;20180;-80
2022/04/01 04:19:19;;;;;;;484.13;58.83;;;;;;;1.99;100.00;93626.38;6103397;23;20253;-79
2022/04/01 04:21:49;;;;;;;369.00;49.77;;;;;;;2.09;100.00;93625.53;6101451;23;20561;-78
2022/04/01 04:24:20;;;;;;;588.37;59.47;;;;;;;2.08;100.00;93634.16;6102611;23;20152;-79
2022/04/01 04:26:50;;;;;;;923.93;76.07;;;;;;;1.91;100.00;93641.66;6101664;23;20235;-80
2022/04/01 04:29:17;;;;;;;487.97;47.13;;;;;;;1.94;100.00;93638.81;6102898;23;20176;-79
2022/04/01 04:32:04;;;;;;;249.30;38.97;;;;;;;2.06;100.00;93638.63;6102359;23;20191;-79
2022/04/01 04:34:41;;;;;;;325.17;45.50;;;;;;;1.97;100.00;93638.53;6127713;23;20218;-79
2022/04/01 04:37:10;;;;;;;566.50;59.60;;;;;;;1.87;100.00;93647.22;6079067;23;20599;-78
2022/04/01 04:39:36;;;;;;;490.43;55.53;;;;;;;1.91;100.00;93640.84;6079483;23;20160;-79
2022/04/01 04:42:03;;;;;;;407.10;47.53;;;;;;;1.95;100.00;93647.31;6101999;23;20179;-79
2022/04/01 04:44:30;;;;;;;406.33;48.87;;;;;;;1.93;100.00;93646.63;6102701;23;20472;-81
2022/04/01 04:46:56;;;;;;;534.50;56.93;;;;;;;1.81;100.00;93656.25;6079020;23;20207;-81
2022/04/01 04:49:22;;;;;;;205.00;39.97;;;;;;;1.93;100.00;93650.00;6102801;23;20148;-80
2022/04/01 04:51:50;;;;;;;282.27;44.97;;;;;;;1.88;100.00;93651.38;6127521;23;20163;-78
2022/04/01 04:54:17;;;;;;;315.30;47.07;;;;;;;1.77;100.00;93656.66;6078607;23;20171;-80
2022/04/01 04:56:43;;;;;;;354.87;47.33;;;;;;;1.65;100.00;93651.72;6078402;23;20180;-80
2022/04/01 04:59:09;;;;;;;312.87;48.10;;;;;;;1.77;100.00;93659.22;6102418;23;20624;-80
2022/04/01 05:01:45;;;;;;;325.47;47.03;;;;;;;1.77;100.00;93656.66;6077774;23;20160;-81
2022/04/01 05:04:30;;;;;;;124.03;37.30;;;;;;;1.77;100.00;93662.59;6078749;23;20583;-81
2022/04/01 05:07:15;;;;;;;94.80;37.73;;;;;;;1.73;100.00;93668.13;6102611;23;20259;-81
2022/04/01 05:09:56;;;;;;;90.47;38.07;;;;;;;1.70;100.00;93671.78;6078563;23;20155;-81
2022/04/01 05:12:32;;;;;;;96.30;36.13;;;;;;;1.67;100.00;93672.03;6101349;23;20151;-80
2022/04/01 05:15:04;;;;;;;68.10;36.83;;;;;;;1.38;100.00;93680.59;6102438;23;20190;-80
2022/04/01 05:17:37;;;;;;;58.20;34.97;;;;;;;1.50;100.00;93676.13;6102597;23;20196;-79
2022/04/01 05:20:11;;;;;;;56.03;34.93;;;;;;;1.52;100.00;93676.00;6078987;23;20180;-79
2022/04/01 05:23:09;;;;;;;58.40;33.73;;;;;;;1.55;100.00;93675.72;6104609;23;20171;-78
2022/04/01 05:25:45;;;;;;;54.20;33.07;;;;;;;1.67;100.00;93680.53;6127335;23;20176;-80
2022/04/01 05:28:23;;;;;;;53.57;32.83;;;;;;;1.63;100.00;93683.50;6076474;23;20602;-78
2022/04/01 05:31:04;;;;;;;55.10;34.43;;;;;;;1.55;100.00;93693.63;6078082;23;20640;-78
2022/04/01 05:33:52;;;;;;;51.60;32.80;;;;;;;1.51;100.00;93692.31;6077366;23;20148;-79
2022/04/01 05:36:18;;;;;;;54.17;33.43;;;;;;;1.64;100.00;93687.69;6102025;23;20460;-79
2022/04/01 05:38:46;;;;;;;51.77;32.53;;;;;;;1.63;100.00;93698.88;6101731;23;20208;-79
2022/04/01 05:41:11;;;;;;;52.50;32.37;;;;;;;1.59;100.00;93693.22;6100922;23;20148;-77
2022/04/01 05:43:38;;;;;;;49.20;31.67;;;;;;;1.58;100.00;93689.03;6077613;23;20601;-78
2022/04/01 05:46:04;;;;;;;48.53;31.20;;;;;;;1.55;100.00;93701.31;6101769;23;20176;-80
2022/04/01 05:48:31;;;;;;;47.63;31.73;;;;;;;1.48;100.00;93697.69;6102289;23;20214;-79
2022/04/01 05:50:56;;;;;;;49.00;30.73;;;;;;;1.51;100.00;93697.44;6078178;23;20576;-79
2022/04/01 05:53:22;;;;;;;50.20;32.03;;;;;;;1.39;100.00;93710.34;6077184;23;20159;-80
2022/04/01 05:55:51;;;;;;;48.83;31.97;;;;;;;1.42;100.00;93704.16;6102790;23;20199;-79
2022/04/01 05:58:16;;;;;;;49.20;32.03;;;;;;;1.37;100.00;93708.88;6081075;23;20183;-79
2022/04/01 06:01:04;;;;;;;47.43;30.20;;;;;;;1.29;100.00;93722.34;6105355;23;20160;-81
2022/04/01 06:04:07;;;;;;;45.30;29.17;;;;;;;1.35;100.00;93719.25;6102042;23;20149;-78
2022/04/01 06:06:41;;;;;;;45.63;28.87;;;;;;;1.37;100.00;93719.91;5987002;23;20241;-82
2022/04/01 06:09:14;;;;;;;46.93;30.50;;;;;;;1.35;100.00;93724.38;5964139;23;20173;-80
2022/04/01 06:12:00;;;;;;;48.67;31.83;;;;;;;1.40;100.00;93729.88;6011841;23;20241;-78
2022/04/01 06:14:35;;;;;;;46.07;29.93;;;;;;;1.32;100.00;93727.19;6013324;23;20679;-77
2022/04/01 06:17:05;;;;;;;47.27;30.07;;;;;;;1.16;100.00;93721.03;6011533;23;20190;-83
2022/04/01 06:19:46;;;;;;;50.37;31.47;;;;;;;1.30;100.00;93721.41;6011180;23;20218;-81
2022/04/01 06:22:15;;;;;;;45.07;28.57;;;;;;;1.44;100.00;93724.50;5963161;23;20199;-81
2022/04/01 06:25:00;;;;;;;46.93;31.60;;;;;;;1.12;100.00;93730.69;6010513;23;20239;-82
2022/04/01 06:27:29;;;;;;;54.63;30.83;;;;;;;1.18;100.00;93727.59;6009226;23;20170;-83
2022/04/01 06:30:02;;;;;;;82.60;31.83;;;;;;;1.20;100.00;93728.28;5986576;23;20187;-82
2022/04/01 06:33:05;;;;;;;51.43;31.30;;;;;;;1.28;100.00;93733.53;5985138;23;20331;-83
2022/04/01 06:35:38;;;;;;;87.67;32.60;;;;;;;1.26;100.00;93742.28;6003508;23;20190;-80
2022/04/01 06:38:06;;;;;;;185.60;36.33;;;;;;;1.08;100.00;93740.41;6012241;23;20175;-84
2022/04/01 06:40:56;;;;;;;46.77;30.80;;;;;;;1.27;100.00;93742.13;6014478;23;20223;-82
2022/04/01 06:43:22;;;;;;;49.50;31.67;;;;;;;1.22;100.00;93746.84;6106811;23;20579;-83
2022/04/01 06:45:47;;;;;;;53.30;31.20;;;;;;;1.14;100.00;93750.06;6082596;23;20179;-84
2022/04/01 06:48:12;;;;;;;103.87;33.33;;;;;;;1.06;100.00;93747.41;6082247;23;20152;-82
2022/04/01 06:50:38;;;;;;;57.93;31.87;;;;;;;1.05;100.00;93753.44;6105886;23;20718;-82
2022/04/01 06:53:04;;;;;;;166.17;36.17;;;;;;;0.87;100.00;93749.13;6105688;23;20156;-81
2022/04/01 06:55:29;;;;;;;134.33;36.93;;;;;;;0.75;100.00;93749.25;6082583;23;20662;-81
2022/04/01 06:57:54;;;;;;;163.93;38.20;;;;;;;0.81;100.00;93753.03;6084423;23;20186;-82
2022/04/01 07:00:20;;;;;;;106.43;36.33;;;;;;;0.88;100.00;93751.53;6084838;23;20163;-82
2022/04/01 07:02:46;;;;;;;81.87;35.17;;;;;;;0.87;100.00;93749.13;6106860;23;20152;-82
2022/04/01 07:05:12;;;;;;;76.50;35.13;;;;;;;0.82;100.00;93752.09;6083119;23;20203;-81
2022/04/01 07:07:40;;;;;;;58.80;33.90;;;;;;;0.94;100.00;93752.75;6111399;23;20183;-82
2022/04/01 07:10:07;;;;;;;73.03;34.93;;;;;;;0.96;100.00;93756.78;6114319;23;20171;-81
2022/04/01 07:12:32;;;;;;;50.77;31.10;;;;;;;1.06;100.00;93751.69;6088321;23;20163;-81
2022/04/01 07:14:59;;;;;;;65.33;33.10;;;;;;;0.89;100.00;93760.84;6086351;23;20168;-82
2022/04/01 07:17:25;;;;;;;51.27;30.53;;;;;;;0.77;100.00;93767.78;6107690;23;20187;-83
2022/04/01 07:19:50;;;;;;;49.17;30.77;;;;;;;0.82;100.00;93755.44;6107635;23;20171;-82
2022/04/01 07:22:16;;;;;;;49.67;30.37;;;;;;;0.84;100.00;93756.13;6105030;23;20493;-81
2022/04/01 07:24:41;;;;;;;45.70;28.87;;;;;;;0.71;100.00;93758.13;6105329;23;20157;-82
2022/04/01 07:27:06;;;;;;;56.43;29.80;;;;;;;0.76;100.00;93758.53;6081957;23;20482;-82
2022/04/01 07:29:32;;;;;;;62.37;31.97;;;;;;;0.73;100.00;93752.88;6104920;23;20174;-82
2022/04/01 07:34:43;;;;;;;132.60;36.10;;;;;;;0.77;100.00;93751.66;6109384;23;20158;-83
2022/04/01 07:37:09;;;;;;;83.90;33.00;;;;;;;0.82;100.00;93758.00;6080921;23;20182;-83
2022/04/01 07:39:35;;;;;;;70.97;32.00;;;;;;;0.96;100.00;93764.44;6104403;23;20689;-83
2022/04/01 07:42:01;;;;;;;98.53;32.37;;;;;;;0.87;100.00;93762.69;6103804;23;20210;-84
2022/04/01 07:44:26;;;;;;;56.50;31.23;;;;;;;1.05;100.00;93762.84;6081716;23;20569;-81
2022/04/01 07:46:52;;;;;;;49.57;29.87;;;;;;;1.12;100.00;93762.19;6080909;23;20213;-84
2022/04/01 07:49:18;;;;;;;44.97;28.80;;;;;;;1.13;100.00;93765.53;6105595;23;20609;-81
2022/04/01 07:51:43;;;;;;;47.47;29.53;;;;;;;1.20;100.00;93768.38;6082376;23;20170;-80
2022/04/01 07:54:13;;;;;;;44.47;28.83;;;;;;;0.88;100.00;93766.88;6084301;23;20166;-82
2022/04/01 07:56:40;;;;;;;42.87;27.83;;;;;;;0.85;100.00;93773.06;6083142;23;20203;-83
2022/04/01 07:59:08;;;;;;;45.67;29.27;;;;;;;0.89;100.00;93780.47;6079098;23;20491;-83
2022/04/01 08:01:34;;;;;;;42.53;26.80;;;;;;;0.91;100.00;93774.28;6102888;23;20168;-83
2022/04/01 08:04:00;;;;;;;42.73;26.27;;;;;;;0.85;100.00;93767.94;6130481;23;20144;-83
2022/04/01 08:06:25;;;;;;;39.60;26.33;;;;;;;0.84;100.00;93778.31;6130976;23;20176;-85
2022/04/01 08:08:50;;;;;;;43.10;26.50;;;;;;;0.83;100.00;93785.16;6128482;23;20161;-84
2022/04/01 08:11:16;;;;;;;38.37;25.07;;;;;;;0.90;100.00;93785.44;6078201;23;20179;-82
2022/04/01 08:13:41;;;;;;;44.03;25.63;;;;;;;0.89;100.00;93791.50;6079112;23;20178;-83
2022/04/01 08:16:06;;;;;;;48.80;27.03;;;;;;;0.92;100.00;93790.44;6079091;23;20206;-84
2022/04/01 08:18:31;;;;;;;43.47;26.50;;;;;;;0.98;100.00;93789.91;6104062;23;20191;-82
2022/04/01 08:20:57;;;;;;;40.70;25.87;;;;;;;0.90;100.00;93794.88;6102018;23;20653;-82
2022/04/01 08:23:22;;;;;;;44.07;25.53;;;;;;;1.01;100.00;93794.75;6101357;23;20489;-82
2022/04/01 08:25:48;;;;;;;47.80;25.93;;;;;;;0.88;100.00;93799.28;6101105;23;20179;-82
2022/04/01 08:28:14;;;;;;;59.93;27.77;;;;;;;0.89;100.00;93806.03;6077787;23;20598;-82
2022/04/01 08:30:40;;;;;;;37.87;25.53;;;;;;;1.18;100.00;93799.19;6077766;23;20254;-81
2022/04/01 08:33:06;;;;;;;36.23;24.00;;;;;;;1.11;100.00;93801.47;6102688;23;20567;-82
2022/04/01 08:35:33;;;;;;;36.13;24.13;;;;;;;1.08;100.00;93808.63;6079140;23;20227;-83
2022/04/01 08:37:58;;;;;;;46.13;25.83;;;;;;;1.09;100.00;93807.66;6079810;23;20216;-81
2022/04/01 08:40:24;;;;;;;37.67;25.10;;;;;;;1.06;100.00;93808.75;6079826;23;20266;-84
2022/04/01 08:42:50;;;;;;;43.70;24.57;;;;;;;1.09;100.00;93817.91;6080837;23;20194;-84
2022/04/01 08:45:19;;;;;;;38.73;25.20;;;;;;;0.96;100.00;93822.44;6078589;23;20183;-84
2022/04/01 08:47:45;;;;;;;35.33;24.27;;;;;;;1.09;100.00;93823.00;6078549;23;20156;-83
2022/04/01 08:50:11;;;;;;;44.17;25.33;;;;;;;0.99;100.00;93823.00;6077776;23;20156;-84
2022/04/01 08:52:37;;;;;;;39.57;24.40;;;;;;;1.21;100.00;93828.78;6100868;23;20214;-83
2022/04/01 08:55:07;;;;;;;44.87;27.37;;;;;;;1.04;100.00;93827.69;6101751;23;20179;-83
2022/04/01 08:57:40;;;;;;;35.83;24.23;;;;;;;0.96;100.00;93838.56;6099877;23;20168;-82
2022/04/01 09:00:15;;;;;;;36.00;24.27;;;;;;;0.92;100.00;93833.88;6078657;23;20156;-84
2022/04/01 09:02:41;;;;;;;33.67;22.93;;;;;;;1.00;100.00;93834.84;6104169;23;20601;-82
2022/04/01 09:05:07;;;;;;;33.53;22.13;;;;;;;0.97;100.00;93834.28;6102385;23;20176;-84
2022/04/01 09:07:34;;;;;;;32.77;22.13;;;;;;;1.07;100.00;93835.94;6078219;23;20160;-85
2022/04/01 09:10:03;;;;;;;32.60;21.87;;;;;;;1.03;100.00;93837.13;6078684;23;20162;-84
2022/04/01 09:12:29;;;;;;;31.33;21.53;;;;;;;1.11;100.00;93846.69;6077469;23;20543;-84
2022/04/01 09:14:55;;;;;;;35.80;23.83;;;;;;;0.99;100.00;93848.56;6076820;23;20224;-83
2022/04/01 09:17:22;;;;;;;40.70;22.93;;;;;;;0.95;100.00;93847.19;6076022;23;20183;-82
2022/04/01 09:19:48;;;;;;;30.30;22.13;;;;;;;1.04;100.00;93843.03;6077561;23;20156;-80
2022/04/01 09:22:24;;;;;;;33.70;23.67;;;;;;;0.91;100.00;93848.41;6102367;23;20166;-83
2022/04/01 09:24:55;;;;;;;33.50;22.13;;;;;;;1.14;100.00;93854.09;6079641;23;20156;-81
2022/04/01 09:27:51;;;;;;;33.77;24.57;;;;;;;1.04;100.00;93856.63;6078329;23;20198;-83
2022/04/01 09:30:20;;;;;;;31.77;21.77;;;;;;;1.03;100.00;93854.19;6102005;23;20179;-83
2022/04/01 09:32:51;;;;;;;37.20;23.03;;;;;;;1.04;100.00;93858.38;6101267;23;20500;-84
2022/04/01 09:35:18;;;;;;;30.90;22.47;;;;;;;0.92;100.00;93862.78;6108021;23;20172;-82
2022/04/01 09:38:07;;;;;;;31.70;23.27;;;;;;;0.87;100.00;93859.81;6102372;23;20502;-83
2022/04/01 09:40:35;;;;;;;35.47;23.20;;;;;;;0.83;100.00;93859.28;6077750;23;20147;-82
2022/04/01 09:43:01;;;;;;;28.40;20.20;;;;;;;0.85;100.00;93862.50;6078938;23;20168;-83
2022/04/01 09:45:29;;;;;;;29.70;20.80;;;;;;;0.87;100.00;93867.47;6103424;23;20657;-83
2022/04/01 09:48:09;;;;;;;30.07;20.57;;;;;;;0.82;100.00;93867.06;6079946;23;20168;-84
2022/04/01 09:50:42;;;;;;;32.40;22.10;;;;;;;0.90;100.00;93871.53;6128192;23;20190;-84
2022/04/01 09:53:22;;;;;;;28.80;20.83;;;;;;;0.88;100.00;93865.72;6078497;23;20479;-84
2022/04/01 09:55:50;;;;;;;28.63;20.87;;;;;;;0.86;100.00;93863.31;6079999;23;20182;-82
2022/04/01 09:58:17;;;;;;;33.50;22.63;;;;;;;0.79;100.00;93868.13;6078631;23;20192;-85
2022/04/01 10:00:43;;;;;;;31.20;21.57;;;;;;;0.57;100.00;93873.44;6102797;23;20156;-85
2022/04/01 10:03:11;;;;;;;28.27;20.47;;;;;;;0.71;100.00;93875.66;6102140;23;20498;-84
2022/04/01 10:05:37;;;;;;;30.47;21.90;;;;;;;0.61;100.00;93879.88;6080365;23;20180;-85
2022/04/01 10:08:07;;;;;;;29.60;21.60;;;;;;;0.43;100.00;93879.69;6104757;23;20148;-85
2022/04/01 10:10:32;;;;;;;29.43;21.00;;;;;;;0.56;100.00;93879.47;6105259;23;20234;-83
2022/04/01 10:13:05;;;;;;;29.30;20.27;;;;;;;0.59;100.00;93886.06;6079416;23;20599;-85
2022/04/01 10:15:32;;;;;;;29.30;21.07;;;;;;;0.57;100.00;93881.09;6105599;23;20195;-85
2022/04/01 10:17:58;;;;;;;26.70;19.90;;;;;;;0.68;100.00;93882.75;6104653;23;20203;-85
2022/04/01 10:20:33;;;;;;;26.93;19.60;;;;;;;0.63;100.00;93878.03;6079650;23;20211;-85
2022/04/01 10:23:01;;;;;;;28.93;20.20;;;;;;;0.80;100.00;93887.66;6104581;23;20628;-85
2022/04/01 10:25:32;;;;;;;28.77;18.83;;;;;;;0.75;100.00;93886.41;6080312;23;20638;-84
2022/04/01 10:28:02;;;;;;;27.30;18.67;;;;;;;0.78;100.00;93886.94;6074838;23;20168;-84
2022/04/01 10:30:31;;;;;;;24.23;17.07;;;;;;;0.81;100.00;93891.81;6075926;23;20243;-83
2022/04/01 10:32:56;;;;;;;24.13;17.50;;;;;;;0.79;100.00;93893.66;6077963;23;20160;-84
2022/04/01 10:35:27;;;;;;;21.37;17.83;;;;;;;0.57;100.00;93887.00;6082197;23;20719;-84
2022/04/01 10:37:54;;;;;;;20.83;15.60;;;;;;;0.63;100.00;93893.38;6108992;23;20167;-82
2022/04/01 10:40:20;;;;;;;22.43;17.43;;;;;;;0.80;100.00;93900.44;6081071;23;20156;-81
2022/04/01 10:42:47;;;;;;;31.97;18.47;;;;;;;0.57;100.00;93904.09;6080524;23;20163;-82
2022/04/01 10:45:15;;;;;;;22.27;17.17;;;;;;;0.70;100.00;93897.00;6081447;23;20642;-83
2022/04/01 10:53:38;;;;;;;28.60;18.47;;;;;;;0.79;100.00;93908.19;6110216;23;20215;-84
2022/04/01 10:56:43;;;;;;;42.90;18.87;;;;;;;0.98;100.00;93902.38;6082706;23;20179;-83
2022/04/01 10:59:12;;;;;;;25.17;17.33;;;;;;;1.01;100.00;93904.66;5996066;23;20205;-86
2022/04/01 11:01:53;;;;;;;20.20;16.50;;;;;;;0.82;100.00;93910.50;6118111;23;20215;-84
2022/04/01 11:04:18;;;;;;;25.13;17.63;;;;;;;0.88;100.00;93906.63;6106456;23;20159;-83
2022/04/01 11:07:08;;;;;;;22.03;17.70;;;;;;;0.98;100.00;93905.72;6132524;23;20176;-84
2022/04/01 11:09:47;;;;;;;22.57;18.47;;;;;;;0.89;100.00;93908.25;6131607;23;20152;-84
2022/04/01 11:12:15;;;;;;;21.57;18.33;;;;;;;1.03;100.00;93911.25;6081973;23;20488;-85
2022/04/01 11:15:07;;;;;;;21.40;16.10;;;;;;;0.93;100.00;93914.72;6106329;23;20160;-84
2022/04/01 11:17:41;;;;;;;21.33;17.27;;;;;;;0.99;100.00;93919.31;6131746;23;20546;-84
2022/04/01 11:20:09;;;;;;;23.33;18.03;;;;;;;0.84;100.00;93919.66;6105233;23;20163;-84
2022/04/01 11:22:37;;;;;;;23.83;18.77;;;;;;;0.77;100.00;93920.31;6080210;23;20268;-83
2022/04/01 11:25:04;;;;;;;28.00;18.83;;;;;;;0.75;100.00;93924.72;6103818;23;20183;-83
2022/04/01 11:27:30;;;;;;;24.63;19.37;;;;;;;0.25;100.00;93927.97;6103279;23;20629;-85
2022/04/01 11:30:13;;;;;;;25.07;20.27;;;;;;;0.54;100.00;93924.78;6104361;23;20262;-83
2022/04/01 11:32:39;;;;;;;24.43;19.17;;;;;;;0.64;100.00;93920.53;6105798;23;20570;-85
2022/04/01 11:35:06;;;;;;;26.90;21.93;;;;;;;0.54;100.00;93928.16;6105058;23;20219;-84
2022/04/01 11:37:39;;;;;;;25.87;20.40;;;;;;;0.73;100.00;93922.31;6103431;23;20183;-85